createdAt,value
2022-10-18T00:00:02.921Z,9.443674
2022-10-18T00:01:02.890Z,9.443719
2022-10-18T00:02:02.936Z,9.443692
2022-10-18T00:03:02.871Z,9.443686
2022-10-18T00:04:02.867Z,9.443518
2022-10-18T00:05:02.926Z,9.443631
2022-10-18T00:06:02.843Z,9.443625
2022-10-18T00:07:02.837Z,9.443689
2022-10-18T00:08:02.840Z,9.443732
2022-10-18T00:09:02.839Z,9.443703
2022-10-18T00:10:02.813Z,9.443719
2022-10-18T00:11:02.840Z,9.443719
2022-10-18T00:12:02.801Z,9.443733
2022-10-18T00:13:02.808Z,9.443742
2022-10-18T00:14:02.871Z,9.443626
2022-10-18T00:15:02.788Z,9.443740
2022-10-18T00:16:02.800Z,9.443721
2022-10-18T00:17:02.780Z,9.443690
2022-10-18T00:18:02.768Z,9.443655
2022-10-18T00:19:02.752Z,9.443740
2022-10-18T00:20:02.778Z,9.443761
2022-10-18T00:21:02.763Z,9.443748
2022-10-18T00:22:02.740Z,9.443707
2022-10-18T00:23:02.753Z,9.443710
2022-10-18T00:24:02.735Z,9.443739
2022-10-18T00:25:02.723Z,9.443699
2022-10-18T00:26:02.732Z,9.443723
2022-10-18T00:27:02.728Z,9.443727
2022-10-18T00:28:02.696Z,9.443675
2022-10-18T00:29:02.779Z,9.443660
2022-10-18T00:30:02.686Z,9.443695
2022-10-18T00:31:02.692Z,9.443762
2022-10-18T00:32:02.674Z,9.443815
2022-10-18T00:33:02.674Z,9.443714
2022-10-18T00:34:02.674Z,9.443767
2022-10-18T00:35:02.650Z,9.443833
2022-10-18T00:36:02.654Z,9.443769
2022-10-18T00:37:02.630Z,9.443707
2022-10-18T00:38:02.637Z,9.443638
2022-10-18T00:39:02.630Z,9.443642
2022-10-18T00:40:02.627Z,9.443645
2022-10-18T00:41:02.612Z,9.443689
2022-10-18T00:42:02.635Z,9.443762
2022-10-18T00:43:02.587Z,9.443698
2022-10-18T00:44:03.590Z,9.443714
2022-10-18T00:45:02.604Z,9.443823
2022-10-18T00:46:02.583Z,9.443780
2022-10-18T00:47:02.582Z,9.443731
2022-10-18T00:48:02.580Z,9.443706
2022-10-18T00:49:02.567Z,9.443656
2022-10-18T00:50:02.559Z,9.443637
2022-10-18T00:51:02.550Z,9.443645
2022-10-18T00:52:02.549Z,9.443687
2022-10-18T00:53:02.539Z,9.443647
2022-10-18T00:54:02.534Z,9.443674
2022-10-18T00:55:02.539Z,9.443664
2022-10-18T00:56:02.509Z,9.443649
2022-10-18T00:57:02.525Z,9.443708
2022-10-18T00:58:02.551Z,9.443652
2022-10-18T00:59:02.486Z,9.443607
2022-10-18T01:00:02.494Z,9.443633
2022-10-18T01:01:02.478Z,9.443659
2022-10-18T01:02:02.518Z,9.443643
2022-10-18T01:03:02.492Z,9.443563
2022-10-18T01:04:02.480Z,9.443637
2022-10-18T01:05:02.463Z,9.443600
2022-10-18T01:06:02.450Z,9.443620
2022-10-18T01:07:02.432Z,9.443577
2022-10-18T01:08:02.448Z,9.443474
2022-10-18T01:09:02.427Z,9.443560
2022-10-18T01:10:02.435Z,9.443569
2022-10-18T01:11:02.421Z,9.443494
2022-10-18T01:12:02.421Z,9.443629
2022-10-18T01:13:02.410Z,9.443711
2022-10-18T01:14:02.413Z,9.443736
2022-10-18T01:15:02.394Z,9.443650
2022-10-18T01:16:02.382Z,9.443678
2022-10-18T01:17:02.371Z,9.443718
2022-10-18T01:18:02.363Z,9.443783
2022-10-18T01:19:02.420Z,9.443729
2022-10-18T01:20:02.359Z,9.443818
2022-10-18T01:21:02.333Z,9.443632
2022-10-18T01:22:02.360Z,9.443456
2022-10-18T01:23:02.332Z,9.443613
2022-10-18T01:24:02.326Z,9.443687
2022-10-18T01:26:02.437Z,9.443535
2022-10-18T01:27:02.317Z,9.443496
2022-10-18T01:28:02.327Z,9.443380
2022-10-18T01:29:02.371Z,9.443474
2022-10-18T01:30:02.273Z,9.443657
2022-10-18T01:31:02.274Z,9.443759
2022-10-18T01:32:02.298Z,9.443922
2022-10-18T01:33:02.270Z,9.443709
2022-10-18T01:35:03.275Z,9.443724
2022-10-18T01:36:02.317Z,9.443674
2022-10-18T01:37:02.249Z,9.443625
2022-10-18T01:38:02.238Z,9.443617
2022-10-18T01:39:02.234Z,9.443760
2022-10-18T01:40:02.223Z,9.443561
2022-10-18T01:41:02.225Z,9.443851
2022-10-18T01:42:02.330Z,9.443706
2022-10-18T01:43:02.250Z,9.443748
2022-10-18T01:44:02.200Z,9.443694
2022-10-18T01:45:02.211Z,9.443664
2022-10-18T01:46:02.193Z,9.443765
2022-10-18T01:47:02.162Z,9.443712
2022-10-18T01:48:02.165Z,9.443760
2022-10-18T01:49:02.182Z,9.443790
2022-10-18T01:50:02.145Z,9.443873
2022-10-18T01:51:02.193Z,9.443839
2022-10-18T01:52:02.253Z,9.443852
2022-10-18T01:53:02.141Z,9.443773
2022-10-18T01:54:02.162Z,9.443741
2022-10-18T01:55:02.114Z,9.443761
2022-10-18T01:56:02.105Z,9.443723
2022-10-18T01:57:02.118Z,9.443727
2022-10-18T01:58:02.127Z,9.443764
2022-10-18T01:59:02.102Z,9.443810
2022-10-18T02:00:02.111Z,9.443912
2022-10-18T02:01:02.168Z,9.443898
2022-10-18T02:02:02.075Z,9.443799
2022-10-18T02:03:02.089Z,9.443810
2022-10-18T02:04:02.053Z,9.443733
2022-10-18T02:05:02.058Z,9.443669
2022-10-18T02:06:02.053Z,9.443724
2022-10-18T02:07:02.036Z,9.443697
2022-10-18T02:08:18.852Z,9.443752
2022-10-18T02:09:04.022Z,9.443704
2022-10-18T02:10:02.111Z,9.443642
2022-10-18T02:11:02.025Z,9.443745
2022-10-18T02:12:01.999Z,9.443735
2022-10-18T02:13:01.990Z,9.443680
2022-10-18T02:14:01.989Z,9.443692
2022-10-18T02:15:01.981Z,9.443752
2022-10-18T02:16:01.990Z,9.443768
2022-10-18T02:17:01.967Z,9.443730
2022-10-18T02:18:01.947Z,9.443708
2022-10-18T02:19:01.964Z,9.443682
2022-10-18T02:20:01.945Z,9.443723
2022-10-18T02:21:01.933Z,9.443785
2022-10-18T02:22:01.945Z,9.443822
2022-10-18T02:23:01.931Z,9.443858
2022-10-18T02:24:01.921Z,9.443891
2022-10-18T02:25:01.913Z,9.443860
2022-10-18T02:26:01.908Z,9.443933
2022-10-18T02:27:01.910Z,9.443921
2022-10-18T02:28:01.882Z,9.443887
2022-10-18T02:29:02.913Z,9.443846
2022-10-18T02:30:01.911Z,9.443790
2022-10-18T02:31:01.890Z,9.443801
2022-10-18T02:32:01.873Z,9.443760
2022-10-18T02:33:01.887Z,9.443736
2022-10-18T02:34:01.881Z,9.443802
2022-10-18T02:35:01.831Z,9.443755
2022-10-18T02:36:02.842Z,9.443828
2022-10-18T02:37:01.870Z,9.443835
2022-10-18T02:38:01.874Z,9.443884
2022-10-18T02:39:01.822Z,9.443944
2022-10-18T02:40:01.804Z,9.443857
2022-10-18T02:41:01.809Z,9.443822
2022-10-18T02:42:01.795Z,9.443842
2022-10-18T02:43:01.825Z,9.443802
2022-10-18T02:44:01.795Z,9.443793
2022-10-18T02:45:01.820Z,9.443852
2022-10-18T02:46:01.769Z,9.443978
2022-10-18T02:47:01.767Z,9.443908
2022-10-18T02:48:01.806Z,9.443923
2022-10-18T02:49:01.750Z,9.443931
2022-10-18T02:50:01.806Z,9.443740
2022-10-18T02:51:01.739Z,9.443638
2022-10-18T02:52:01.742Z,9.443634
2022-10-18T02:53:01.718Z,9.443655
2022-10-18T02:54:01.743Z,9.443650
2022-10-18T02:55:01.758Z,9.443655
2022-10-18T02:56:01.701Z,9.443666
2022-10-18T02:57:01.691Z,9.443647
2022-10-18T02:58:01.695Z,9.443704
2022-10-18T02:59:01.705Z,9.443615
2022-10-18T03:00:01.694Z,9.443616
2022-10-18T03:01:01.714Z,9.443615
2022-10-18T03:02:01.682Z,9.443621
2022-10-18T03:03:01.674Z,9.443607
2022-10-18T03:04:01.664Z,9.443641
2022-10-18T03:05:01.682Z,9.443617
2022-10-18T03:06:01.640Z,9.443570
2022-10-18T03:07:01.638Z,9.443579
2022-10-18T03:08:01.638Z,9.443593
2022-10-18T03:09:01.630Z,9.443641
2022-10-18T03:10:01.633Z,9.443636
2022-10-18T03:11:01.610Z,9.443553
2022-10-18T03:12:01.613Z,9.443486
2022-10-18T03:13:01.595Z,9.443581
2022-10-18T03:14:01.590Z,9.443645
2022-10-18T03:15:01.605Z,9.443642
2022-10-18T03:16:01.606Z,9.443647
2022-10-18T03:17:01.584Z,9.443624
2022-10-18T03:18:01.586Z,9.443687
2022-10-18T03:19:01.571Z,9.443682
2022-10-18T03:20:01.559Z,9.443723
2022-10-18T03:21:01.561Z,9.443685
2022-10-18T03:22:01.581Z,9.443604
2022-10-18T03:23:01.546Z,9.443638
2022-10-18T03:24:02.313Z,9.443639
2022-10-18T03:25:01.539Z,9.443604
2022-10-18T03:26:01.521Z,9.443612
2022-10-18T03:27:01.534Z,9.443673
2022-10-18T03:28:01.510Z,9.443653
2022-10-18T03:29:01.575Z,9.443607
2022-10-18T03:30:01.500Z,9.443595
2022-10-18T03:31:01.491Z,9.443643
2022-10-18T03:32:01.512Z,9.443629
2022-10-18T03:33:01.467Z,9.443615
2022-10-18T03:34:01.466Z,9.443612
2022-10-18T03:35:01.482Z,9.443568
2022-10-18T03:36:01.459Z,9.443550
2022-10-18T03:37:04.666Z,9.443595
2022-10-18T03:38:01.451Z,9.443542
2022-10-18T03:39:01.430Z,9.443571
2022-10-18T03:40:01.435Z,9.443635
2022-10-18T03:41:01.417Z,9.443572
2022-10-18T03:42:01.432Z,9.443585
2022-10-18T03:43:01.433Z,9.443603
2022-10-18T03:44:01.407Z,9.443606
2022-10-18T03:45:01.424Z,9.443668
2022-10-18T03:46:01.387Z,9.443642
2022-10-18T03:47:02.298Z,9.443625
2022-10-18T03:48:01.371Z,9.443673
2022-10-18T03:49:01.383Z,9.443751
2022-10-18T03:50:01.363Z,9.443793
2022-10-18T03:51:01.362Z,9.443682
2022-10-18T03:52:01.361Z,9.443703
2022-10-18T03:53:01.343Z,9.443727
2022-10-18T03:54:01.367Z,9.443761
2022-10-18T03:55:01.366Z,9.443746
2022-10-18T03:56:01.335Z,9.443721
2022-10-18T03:57:01.314Z,9.443749
2022-10-18T03:58:01.314Z,9.443670
2022-10-18T03:59:01.329Z,9.443788
2022-10-18T04:00:01.306Z,9.443762
2022-10-18T04:01:01.294Z,9.443736
2022-10-18T04:02:01.330Z,9.443734
2022-10-18T04:03:01.284Z,9.443726
2022-10-18T04:04:01.270Z,9.443742
2022-10-18T04:05:01.309Z,9.443694
2022-10-18T04:06:01.270Z,9.443739
2022-10-18T04:07:01.277Z,9.443703
2022-10-18T04:08:01.261Z,9.443744
2022-10-18T04:09:03.180Z,9.443762
2022-10-18T04:10:01.242Z,9.443715
2022-10-18T04:11:01.256Z,9.443728
2022-10-18T04:12:01.214Z,9.443763
2022-10-18T04:13:01.250Z,9.443772
2022-10-18T04:14:01.210Z,9.443782
2022-10-18T04:15:01.262Z,9.443741
2022-10-18T04:16:01.198Z,9.443690
2022-10-18T04:17:01.182Z,9.443675
2022-10-18T04:18:01.202Z,9.443752
2022-10-18T04:19:01.167Z,9.443701
2022-10-18T04:20:01.173Z,9.443673
2022-10-18T04:21:01.182Z,9.443613
2022-10-18T04:22:01.207Z,9.443648
2022-10-18T04:23:01.167Z,9.443654
2022-10-18T04:24:01.165Z,9.443712
2022-10-18T04:25:01.134Z,9.443747
2022-10-18T04:26:01.130Z,9.443718
2022-10-18T04:27:01.122Z,9.443757
2022-10-18T04:28:14.254Z,9.443741
2022-10-18T04:29:01.151Z,9.443750
2022-10-18T04:30:01.098Z,9.443727
2022-10-18T04:31:02.305Z,9.443719
2022-10-18T04:32:01.805Z,9.443680
2022-10-18T04:33:01.099Z,9.443713
2022-10-18T04:34:01.090Z,9.443729
2022-10-18T04:35:01.073Z,9.443744
2022-10-18T04:36:01.059Z,9.443723
2022-10-18T04:37:01.072Z,9.443718
2022-10-18T04:38:02.825Z,9.443710
2022-10-18T04:39:01.059Z,9.443720
2022-10-18T04:40:01.111Z,9.443687
2022-10-18T04:41:01.025Z,9.443689
2022-10-18T04:42:01.042Z,9.443685
2022-10-18T04:43:01.022Z,9.443685
2022-10-18T04:44:01.018Z,9.443707
2022-10-18T04:45:01.404Z,9.443735
2022-10-18T04:46:00.983Z,9.443738
2022-10-18T04:47:00.982Z,9.443697
2022-10-18T04:48:00.988Z,9.443714
2022-10-18T04:49:01.000Z,9.443789
2022-10-18T04:50:00.955Z,9.443787
2022-10-18T04:51:01.965Z,9.443740
2022-10-18T04:52:00.968Z,9.443720
2022-10-18T04:53:00.959Z,9.443735
2022-10-18T04:54:00.938Z,9.443731
2022-10-18T04:55:01.097Z,9.443729
2022-10-18T04:56:01.309Z,9.443736
2022-10-18T04:57:00.933Z,9.443756
2022-10-18T04:58:00.917Z,9.443742
2022-10-18T04:59:00.920Z,9.443810
2022-10-18T05:00:00.952Z,9.443667
2022-10-18T05:01:00.955Z,9.443678
2022-10-18T05:02:00.987Z,9.443735
2022-10-18T05:03:03.500Z,9.443712
2022-10-18T05:04:01.026Z,9.443720
2022-10-18T05:05:01.748Z,9.443755
2022-10-18T05:06:02.831Z,9.443785
2022-10-18T05:07:02.095Z,9.443701
2022-10-18T05:08:00.841Z,9.443829
2022-10-18T05:09:01.914Z,9.443817
2022-10-18T05:10:00.875Z,9.443767
2022-10-18T05:11:00.884Z,9.443735
2022-10-18T05:12:01.815Z,9.443695
2022-10-18T05:13:01.088Z,9.443666
2022-10-18T05:14:00.808Z,9.443791
2022-10-18T05:15:00.863Z,9.443736
2022-10-18T05:16:00.901Z,9.443845
2022-10-18T05:17:00.779Z,9.443826
2022-10-18T05:18:00.792Z,9.443888
2022-10-18T05:19:00.779Z,9.443684
2022-10-18T05:20:00.946Z,9.443743
2022-10-18T05:21:00.766Z,9.443831
2022-10-18T05:22:00.986Z,9.443794
2022-10-18T05:23:00.899Z,9.443717
2022-10-18T05:24:00.746Z,9.443770
2022-10-18T05:25:00.805Z,9.443864
2022-10-18T05:26:00.739Z,9.443854
2022-10-18T05:27:00.722Z,9.444015
2022-10-18T05:28:06.272Z,9.443986
2022-10-18T05:29:02.863Z,9.443797
2022-10-18T05:30:04.715Z,9.443830
2022-10-18T05:31:00.712Z,9.443789
2022-10-18T05:32:00.892Z,9.443718
2022-10-18T05:33:00.681Z,9.443728
2022-10-18T05:34:00.684Z,9.443693
2022-10-18T05:35:00.702Z,9.443695
2022-10-18T05:36:00.661Z,9.443724
2022-10-18T05:37:00.656Z,9.443791
2022-10-18T05:38:00.769Z,9.443828
2022-10-18T05:39:04.022Z,9.443835
2022-10-18T05:40:00.648Z,9.443785
2022-10-18T05:41:01.299Z,9.443759
2022-10-18T05:42:00.635Z,9.443636
2022-10-18T05:43:00.610Z,9.443669
2022-10-18T05:44:00.687Z,9.443875
2022-10-18T05:45:00.613Z,9.443862
2022-10-18T05:46:00.622Z,9.443738
2022-10-18T05:47:00.618Z,9.443781
2022-10-18T05:48:00.625Z,9.443722
2022-10-18T05:49:00.584Z,9.443739
2022-10-18T05:50:00.632Z,9.443727
2022-10-18T05:51:00.578Z,9.443686
2022-10-18T05:52:00.611Z,9.443667
2022-10-18T05:53:11.888Z,9.443740
2022-10-18T05:54:02.534Z,9.443733
2022-10-18T05:55:01.429Z,9.443681
2022-10-18T05:56:00.580Z,9.443674
2022-10-18T05:57:00.528Z,9.443709
2022-10-18T05:58:00.515Z,9.443737
2022-10-18T05:59:00.548Z,9.443712
2022-10-18T06:00:00.499Z,9.443687
2022-10-18T06:01:00.491Z,9.443703
2022-10-18T06:02:00.539Z,9.443702
2022-10-18T06:03:00.742Z,9.443667
2022-10-18T06:04:00.490Z,9.443709
2022-10-18T06:05:00.786Z,9.443689
2022-10-18T06:06:00.466Z,9.443698
2022-10-18T06:07:00.451Z,9.443717
2022-10-18T06:08:00.462Z,9.443694
2022-10-18T06:09:00.455Z,9.443703
2022-10-18T06:10:00.434Z,9.443707
2022-10-18T06:11:00.450Z,9.443698
2022-10-18T06:12:00.420Z,9.443707
2022-10-18T06:13:00.415Z,9.443744
2022-10-18T06:14:00.444Z,9.443651
2022-10-18T06:15:00.424Z,9.443692
2022-10-18T06:16:00.405Z,9.443707
2022-10-18T06:17:00.391Z,9.443737
2022-10-18T06:18:00.399Z,9.443747
2022-10-18T06:19:00.366Z,9.443668
2022-10-18T06:20:02.041Z,9.443660
2022-10-18T06:21:00.411Z,9.443728
2022-10-18T06:22:00.374Z,9.443761
2022-10-18T06:23:00.372Z,9.443761
2022-10-18T06:24:00.334Z,9.443790
2022-10-18T06:25:00.387Z,9.443751
2022-10-18T06:26:00.329Z,9.443699
2022-10-18T06:27:00.381Z,9.443706
2022-10-18T06:28:00.390Z,9.443690
2022-10-18T06:29:00.384Z,9.443714
2022-10-18T06:30:00.350Z,9.443690
2022-10-18T06:31:00.299Z,9.443720
2022-10-18T06:32:01.289Z,9.443740
2022-10-18T06:33:00.272Z,9.443742
2022-10-18T06:34:00.272Z,9.443749
2022-10-18T06:35:00.265Z,9.443720
2022-10-18T06:36:00.278Z,9.443779
2022-10-18T06:37:00.292Z,9.443755
2022-10-18T06:38:00.346Z,9.443760
2022-10-18T06:39:00.862Z,9.443749
2022-10-18T06:40:00.267Z,9.443729
2022-10-18T06:41:00.237Z,9.443762
2022-10-18T06:42:00.213Z,9.443769
2022-10-18T06:43:10.650Z,9.443727
2022-10-18T06:44:01.204Z,9.443770
2022-10-18T06:45:00.279Z,9.443760
2022-10-18T06:46:00.183Z,9.443759
2022-10-18T06:47:00.241Z,9.443813
2022-10-18T06:48:00.214Z,9.443749
2022-10-18T06:49:00.169Z,9.443682
2022-10-18T06:50:00.861Z,9.443740
2022-10-18T06:51:00.165Z,9.443767
2022-10-18T06:52:00.141Z,9.443780
2022-10-18T06:53:00.156Z,9.443743
2022-10-18T06:54:16.920Z,9.443737
2022-10-18T06:55:04.215Z,9.443782
2022-10-18T06:56:01.137Z,9.443776
2022-10-18T06:57:00.130Z,9.443792
2022-10-18T06:58:00.110Z,9.443789
2022-10-18T06:59:00.218Z,9.443832
2022-10-18T07:00:00.096Z,9.443637
2022-10-18T07:01:00.084Z,9.443659
2022-10-18T07:02:00.154Z,9.443598
2022-10-18T07:03:00.058Z,9.443666
2022-10-18T07:04:00.093Z,9.443758
2022-10-18T07:05:00.053Z,9.443715
2022-10-18T07:06:00.073Z,9.443724
2022-10-18T07:07:00.064Z,9.443680
2022-10-18T07:08:00.033Z,9.443664
2022-10-18T07:09:00.082Z,9.443710
2022-10-18T07:10:00.034Z,9.443778
2022-10-18T07:11:00.027Z,9.443849
2022-10-18T07:12:00.842Z,9.443765
2022-10-18T07:13:20.046Z,9.443650
2022-10-18T07:14:02.019Z,9.443692
2022-10-18T07:15:00.079Z,9.443851
2022-10-18T07:16:00.014Z,9.443818
2022-10-18T07:16:59.999Z,9.443562
2022-10-18T07:17:59.988Z,9.443741
2022-10-18T07:18:59.989Z,9.443803
2022-10-18T07:19:59.988Z,9.443732
2022-10-18T07:20:59.945Z,9.443763
2022-10-18T07:21:59.928Z,9.443707
2022-10-18T07:22:59.969Z,9.443440
2022-10-18T07:23:59.943Z,9.443570
2022-10-18T07:25:00.031Z,9.443719
2022-10-18T07:25:59.911Z,9.443788
2022-10-18T07:26:59.904Z,9.443671
2022-10-18T07:27:59.971Z,9.443600
2022-10-18T07:28:59.940Z,9.443750
2022-10-18T07:29:59.900Z,9.443724
2022-10-18T07:31:03.657Z,9.443678
2022-10-18T07:32:01.871Z,9.443609
2022-10-18T07:32:59.877Z,9.443651
2022-10-18T07:33:59.875Z,9.443562
2022-10-18T07:35:01.001Z,9.443581
2022-10-18T07:35:59.835Z,9.443540
2022-10-18T07:36:59.875Z,9.443577
2022-10-18T07:37:59.815Z,9.443465
2022-10-18T07:38:59.877Z,9.443417
2022-10-18T07:39:59.842Z,9.443545
2022-10-18T07:40:59.812Z,9.443562
2022-10-18T07:41:59.849Z,9.443602
2022-10-18T07:43:04.054Z,9.443691
2022-10-18T07:44:00.800Z,9.443687
2022-10-18T07:44:59.797Z,9.443576
2022-10-18T07:45:59.797Z,9.443626
2022-10-18T07:46:59.775Z,9.443551
2022-10-18T07:47:59.837Z,9.443629
2022-10-18T07:48:59.758Z,9.443521
2022-10-18T07:49:59.820Z,9.443598
2022-10-18T07:50:59.774Z,9.443625
2022-10-18T07:51:59.758Z,9.443692
2022-10-18T07:52:59.793Z,9.443682
2022-10-18T07:53:59.732Z,9.443670
2022-10-18T07:54:59.715Z,9.443556
2022-10-18T07:56:00.234Z,9.443504
2022-10-18T07:56:59.703Z,9.443562
2022-10-18T07:57:59.779Z,9.443614
2022-10-18T07:58:59.695Z,9.443637
2022-10-18T07:59:59.723Z,9.443686
2022-10-18T08:00:59.708Z,9.443782
2022-10-18T08:01:59.748Z,9.443749
2022-10-18T08:02:59.734Z,9.443723
2022-10-18T08:04:03.385Z,9.443670
2022-10-18T08:05:01.678Z,9.443654
2022-10-18T08:05:59.693Z,9.443681
2022-10-18T08:06:59.646Z,9.443665
2022-10-18T08:08:01.950Z,9.443714
2022-10-18T08:08:59.642Z,9.443721
2022-10-18T08:09:59.638Z,9.443686
2022-10-18T08:10:59.624Z,9.443701
2022-10-18T08:11:59.685Z,9.443618
2022-10-18T08:12:59.693Z,9.443547
2022-10-18T08:13:59.594Z,9.443538
2022-10-18T08:14:59.609Z,9.443698
2022-10-18T08:15:59.597Z,9.443742
2022-10-18T08:16:59.597Z,9.443642
2022-10-18T08:17:59.640Z,9.443604
2022-10-18T08:18:59.700Z,9.443486
2022-10-18T08:20:11.877Z,9.443281
2022-10-18T08:21:00.565Z,9.443686
2022-10-18T08:21:59.554Z,9.443760
2022-10-18T08:23:00.586Z,9.443707
2022-10-18T08:24:00.566Z,9.443572
2022-10-18T08:24:59.537Z,9.443587
2022-10-18T08:25:59.515Z,9.443739
2022-10-18T08:26:59.574Z,9.443710
2022-10-18T08:27:59.522Z,9.443737
2022-10-18T08:29:10.623Z,9.443733
2022-10-18T08:30:01.567Z,9.443717
2022-10-18T08:30:59.518Z,9.443678
2022-10-18T08:31:59.730Z,9.443609
2022-10-18T08:32:59.624Z,9.443674
2022-10-18T08:33:59.575Z,9.443745
2022-10-18T08:34:59.515Z,9.443678
2022-10-18T08:35:59.472Z,9.443665
2022-10-18T08:36:59.469Z,9.443616
2022-10-18T08:37:59.475Z,9.443656
2022-10-18T08:38:59.477Z,9.443684
2022-10-18T08:39:59.447Z,9.443704
2022-10-18T08:40:59.434Z,9.443693
2022-10-18T08:41:59.896Z,9.443684
2022-10-18T08:42:59.430Z,9.443620
2022-10-18T08:44:01.099Z,9.443565
2022-10-18T08:45:05.021Z,9.443538
2022-10-18T08:46:00.453Z,9.443664
2022-10-18T08:46:59.427Z,9.443696
2022-10-18T08:47:59.425Z,9.443685
2022-10-18T08:48:59.383Z,9.443664
2022-10-18T08:49:59.446Z,9.443643
2022-10-18T08:50:59.456Z,9.443714
2022-10-18T08:51:59.371Z,9.443691
2022-10-18T08:52:59.423Z,9.443702
2022-10-18T08:53:59.372Z,9.443611
2022-10-18T08:54:59.337Z,9.443644
2022-10-18T08:55:59.447Z,9.443665
2022-10-18T08:56:59.328Z,9.443579
2022-10-18T08:57:59.320Z,9.443640
2022-10-18T08:58:59.358Z,9.443566
2022-10-18T08:59:59.368Z,9.443622
2022-10-18T09:00:59.315Z,9.443665
2022-10-18T09:01:59.295Z,9.443667
2022-10-18T09:02:59.348Z,9.443603
2022-10-18T09:03:59.270Z,9.443562
2022-10-18T09:05:00.277Z,9.443682
2022-10-18T09:05:59.290Z,9.443625
2022-10-18T09:06:59.266Z,9.443670
2022-10-18T09:07:59.276Z,9.443675
2022-10-18T09:08:59.487Z,9.443689
2022-10-18T09:09:59.243Z,9.443700
2022-10-18T09:10:59.333Z,9.443708
2022-10-18T09:12:01.903Z,9.443696
2022-10-18T09:13:00.248Z,9.443670
2022-10-18T09:13:59.215Z,9.443622
2022-10-18T09:14:59.286Z,9.443694
2022-10-18T09:15:59.198Z,9.443659
2022-10-18T09:17:00.199Z,9.443599
2022-10-18T09:17:59.358Z,9.443727
2022-10-18T09:18:59.195Z,9.443752
2022-10-18T09:20:59.372Z,9.443596
2022-10-18T09:21:59.157Z,9.443587
2022-10-18T09:22:59.177Z,9.443646
2022-10-18T09:23:59.375Z,9.443714
2022-10-18T09:24:59.141Z,9.443728
2022-10-18T09:25:59.132Z,9.443706
2022-10-18T09:26:59.142Z,9.443665
2022-10-18T09:27:59.116Z,9.443603
2022-10-18T09:28:59.262Z,9.443726
2022-10-18T09:29:59.169Z,9.443666
2022-10-18T09:30:59.788Z,9.443774
2022-10-18T09:31:59.088Z,9.443662
2022-10-18T09:32:59.256Z,9.443709
2022-10-18T09:33:59.080Z,9.443793
2022-10-18T09:34:59.083Z,9.443676
2022-10-18T09:35:59.133Z,9.443593
2022-10-18T09:36:59.140Z,9.443666
2022-10-18T09:37:59.058Z,9.443639
2022-10-18T09:39:00.438Z,9.443675
2022-10-18T09:39:59.168Z,9.443616
2022-10-18T09:40:59.047Z,9.443792
2022-10-18T09:41:59.027Z,9.443845
2022-10-18T09:42:59.082Z,9.443739
2022-10-18T09:43:59.018Z,9.443599
2022-10-18T09:44:59.018Z,9.443648
2022-10-18T09:45:59.037Z,9.443744
2022-10-18T09:46:58.998Z,9.443673
2022-10-18T09:47:59.062Z,9.443708
2022-10-18T09:48:59.005Z,9.443741
2022-10-18T09:49:59.034Z,9.443712
2022-10-18T09:50:58.994Z,9.443672
2022-10-18T09:51:59.030Z,9.443724
2022-10-18T09:52:58.963Z,9.443735
2022-10-18T09:53:59.006Z,9.443769
2022-10-18T09:54:58.995Z,9.443821
2022-10-18T09:55:58.978Z,9.443798
2022-10-18T09:56:59.133Z,9.443806
2022-10-18T09:57:59.826Z,9.443746
2022-10-18T09:58:59.163Z,9.443698
2022-10-18T09:59:58.914Z,9.443707
2022-10-18T10:00:58.910Z,9.443662
2022-10-18T10:01:58.977Z,9.443617
2022-10-18T10:02:58.911Z,9.443753
2022-10-18T10:03:59.907Z,9.443703
2022-10-18T10:04:58.951Z,9.443589
2022-10-18T10:05:58.999Z,9.443567
2022-10-18T10:06:58.883Z,9.443480
2022-10-18T10:07:58.903Z,9.443569
2022-10-18T10:08:58.870Z,9.443400
2022-10-18T10:09:58.871Z,9.443521
2022-10-18T10:10:58.850Z,9.443485
2022-10-18T10:11:58.859Z,9.443370
2022-10-18T10:12:58.863Z,9.443432
2022-10-18T10:13:58.989Z,9.443387
2022-10-18T10:14:58.851Z,9.443403
2022-10-18T10:15:58.895Z,9.443629
2022-10-18T10:16:59.761Z,9.443677
2022-10-18T10:17:59.835Z,9.443750
2022-10-18T10:18:58.830Z,9.443682
2022-10-18T10:19:58.834Z,9.443669
2022-10-18T10:20:58.803Z,9.443644
2022-10-18T10:21:58.802Z,9.443767
2022-10-18T10:22:58.799Z,9.443793
2022-10-18T10:23:58.815Z,9.443746
2022-10-18T10:24:58.799Z,9.443724
2022-10-18T10:25:58.859Z,9.443754
2022-10-18T10:26:59.883Z,9.443742
2022-10-18T10:27:58.858Z,9.443726
2022-10-18T10:28:58.792Z,9.443742
2022-10-18T10:30:01.526Z,9.443707
2022-10-18T10:31:00.875Z,9.443675
2022-10-18T10:31:58.813Z,9.443736
2022-10-18T10:32:58.775Z,9.443771
2022-10-18T10:33:59.434Z,9.443724
2022-10-18T10:34:58.773Z,9.443783
2022-10-18T10:35:58.734Z,9.443718
2022-10-18T10:37:31.533Z,9.443657
2022-10-18T10:37:58.710Z,9.443618
2022-10-18T10:38:58.706Z,9.443690
2022-10-18T10:40:17.238Z,9.443612
2022-10-18T10:41:00.687Z,9.443707
2022-10-18T10:41:58.698Z,9.443669
2022-10-18T10:43:08.855Z,9.443781
2022-10-18T10:44:00.682Z,9.443763
2022-10-18T10:44:58.663Z,9.443756
2022-10-18T10:45:58.670Z,9.443632
2022-10-18T10:46:58.646Z,9.443669
2022-10-18T10:47:58.656Z,9.443771
2022-10-18T10:49:21.055Z,9.443736
2022-10-18T10:50:00.643Z,9.443710
2022-10-18T10:50:58.653Z,9.443668
2022-10-18T10:52:08.573Z,9.443682
2022-10-18T10:52:59.647Z,9.443723
2022-10-18T10:53:58.610Z,9.443748
2022-10-18T10:55:06.090Z,9.443774
2022-10-18T10:56:00.634Z,9.443616
2022-10-18T10:56:58.570Z,9.443719
2022-10-18T10:57:58.586Z,9.443774
2022-10-18T10:58:58.650Z,9.443771
2022-10-18T10:59:58.577Z,9.443746
2022-10-18T11:00:58.670Z,9.443753
2022-10-18T11:01:58.575Z,9.443802
2022-10-18T11:03:06.061Z,9.443725
2022-10-18T11:04:00.562Z,9.443820
2022-10-18T11:04:58.617Z,9.443734
2022-10-18T11:05:58.520Z,9.443663
2022-10-18T11:06:58.509Z,9.443548
2022-10-18T11:07:58.492Z,9.443784
2022-10-18T11:08:58.500Z,9.443565
2022-10-18T11:09:58.521Z,9.443317
2022-10-18T11:10:58.530Z,9.443593
2022-10-18T11:11:58.472Z,9.443624
2022-10-18T11:12:58.489Z,9.443683
2022-10-18T11:14:13.601Z,9.443537
2022-10-18T11:15:00.478Z,9.443778
2022-10-18T11:15:58.471Z,9.443836
2022-10-18T11:16:58.501Z,9.443667
2022-10-18T11:17:58.449Z,9.443748
2022-10-18T11:18:58.436Z,9.443739
2022-10-18T11:19:58.488Z,9.443759
2022-10-18T11:20:58.431Z,9.443747
2022-10-18T11:21:58.415Z,9.443716
2022-10-18T11:22:58.405Z,9.443495
2022-10-18T11:23:58.472Z,9.443592
2022-10-18T11:24:58.396Z,9.443636
2022-10-18T11:25:58.387Z,9.443646
2022-10-18T11:26:58.383Z,9.443684
2022-10-18T11:27:58.367Z,9.443710
2022-10-18T11:28:58.407Z,9.443767
2022-10-18T11:29:58.367Z,9.443714
2022-10-18T11:30:58.395Z,9.443712
2022-10-18T11:31:58.352Z,9.443770
2022-10-18T11:32:58.348Z,9.443642
2022-10-18T11:34:08.611Z,9.443648
2022-10-18T11:35:00.371Z,9.443667
2022-10-18T11:36:03.566Z,9.443681
2022-10-18T11:37:25.962Z,9.443708
2022-10-18T11:38:00.887Z,9.443739
2022-10-18T11:38:58.347Z,9.443708
2022-10-18T11:39:58.309Z,9.443643
2022-10-18T11:40:58.304Z,9.443633
2022-10-18T11:41:58.295Z,9.443690
2022-10-18T11:42:58.284Z,9.443729
2022-10-18T11:44:02.529Z,9.443739
2022-10-18T11:44:59.340Z,9.443665
2022-10-18T11:45:58.316Z,9.443652
2022-10-18T11:46:59.244Z,9.443712